Time;durP1;ratioP1;P1;durP2;ratioP2;P2;SDS_P1;SDS_P2;PMS_P1;PMS_P2;Temp;Humidity;BMP_temperature;BMP_pressure;BME280_temperature;BME280_humidity;BME280_pressure;Samples;Min_cycle;Max_cycle;Signal;HPM_P1;HPM_P2
2023/05/17 13:11:13;;;;;;;3.22;1.25;;;;;;;16.06;51.38;96758.22;5093733;27;20393;-69
2023/05/17 13:13:40;;;;;;;3.03;1.38;;;;;;;16.37;56.71;96762.06;5093695;28;20202;-70
2023/05/17 13:16:08;;;;;;;3.28;0.95;;;;;;;16.11;50.52;96758.44;5093169;28;21130;-69
2023/05/17 13:18:47;;;;;;;0.85;0.60;;;;;;;15.80;51.05;96759.94;5093998;28;20210;-68
2023/05/17 13:21:14;;;;;;;1.75;1.15;;;;;;;15.74;52.58;96756.22;5093118;28;20206;-70
2023/05/17 13:23:42;;;;;;;2.67;1.35;;;;;;;16.34;51.24;96754.47;5092721;28;20203;-68
2023/05/17 13:26:11;;;;;;;2.42;0.80;;;;;;;15.76;53.97;96762.16;5093470;28;20660;-69
2023/05/17 13:28:38;;;;;;;0.77;0.52;;;;;;;16.02;53.90;96760.44;5092031;28;20200;-68
2023/05/17 13:31:05;;;;;;;2.30;0.70;;;;;;;15.71;53.58;96763.78;5092139;28;20219;-69
2023/05/17 13:33:31;;;;;;;1.70;0.90;;;;;;;15.58;54.15;96761.00;5093874;28;20334;-69
2023/05/17 13:35:58;;;;;;;3.67;0.90;;;;;;;15.68;54.19;96769.47;5093086;28;20669;-69
2023/05/17 13:38:24;;;;;;;1.20;0.85;;;;;;;16.14;51.78;96769.50;5090616;28;20971;-69
2023/05/17 13:40:51;;;;;;;2.10;1.13;;;;;;;15.74;53.80;96763.38;5092891;28;20192;-69
2023/05/17 13:43:19;;;;;;;0.90;0.80;;;;;;;15.99;54.61;96762.69;5093099;28;21037;-70
2023/05/17 13:45:49;;;;;;;2.67;1.13;;;;;;;15.84;55.71;96758.53;5092986;28;20203;-70
2023/05/17 13:48:16;;;;;;;3.65;1.02;;;;;;;15.65;57.66;96765.34;5092494;28;20289;-70
2023/05/17 13:50:42;;;;;;;0.90;0.57;;;;;;;15.91;54.02;96770.81;5091498;28;20225;-70
2023/05/17 13:53:09;;;;;;;2.38;1.02;;;;;;;15.92;57.56;96765.31;5091605;28;20207;-68
2023/05/17 13:55:37;;;;;;;1.33;0.93;;;;;;;16.01;53.84;96771.28;5092485;28;20566;-69
2023/05/17 13:58:04;;;;;;;1.27;0.82;;;;;;;16.44;51.87;96760.22;5092165;28;20315;-69
2023/05/17 14:00:32;;;;;;;1.25;0.88;;;;;;;16.72;53.01;96756.41;5092431;28;20260;-69
2023/05/17 14:02:58;;;;;;;2.10;1.40;;;;;;;16.08;52.13;96772.97;5092246;28;20750;-71
2023/05/17 14:05:25;;;;;;;1.60;1.17;;;;;;;16.62;51.13;96760.47;5092059;28;20210;-69
2023/05/17 14:07:52;;;;;;;1.83;0.95;;;;;;;16.84;51.70;96753.97;5091551;28;21696;-70
2023/05/17 14:10:18;;;;;;;3.33;1.75;;;;;;;17.35;52.63;96763.84;5091702;28;20225;-69
2023/05/17 14:12:45;;;;;;;2.00;1.10;;;;;;;17.49;51.08;96774.31;5093515;28;20210;-69
2023/05/17 14:15:12;;;;;;;2.25;0.82;;;;;;;17.88;47.23;96761.75;5089923;28;20488;-70
2023/05/17 14:17:40;;;;;;;2.22;1.00;;;;;;;17.44;50.00;96757.31;5089098;28;20229;-70
2023/05/17 14:20:08;;;;;;;1.75;1.20;;;;;;;16.86;52.96;96762.59;5091207;28;20283;-68
2023/05/17 14:22:35;;;;;;;0.80;0.70;;;;;;;16.63;53.97;96772.78;5079015;28;20200;-68
2023/05/17 14:25:01;;;;;;;2.53;0.98;;;;;;;17.16;53.26;96765.47;5077190;28;20280;-69
2023/05/17 14:27:28;;;;;;;3.63;1.08;;;;;;;17.11;52.14;96767.94;5076168;28;20219;-69
2023/05/17 14:29:54;;;;;;;1.63;0.90;;;;;;;16.77;52.62;96769.13;5078628;28;20227;-68
2023/05/17 14:32:21;;;;;;;3.15;0.95;;;;;;;17.49;52.04;96769.00;5078388;28;20206;-70
2023/05/17 14:34:49;;;;;;;3.50;1.33;;;;;;;17.80;49.82;96763.81;5078487;28;20199;-69
2023/05/17 14:37:15;;;;;;;4.03;1.13;;;;;;;17.92;49.73;96756.78;5078801;28;20227;-71
2023/05/17 14:39:42;;;;;;;5.63;1.45;;;;;;;18.26;51.33;96764.53;5078571;28;20207;-69
2023/05/17 14:42:08;;;;;;;1.83;0.98;;;;;;;17.99;48.65;96762.94;5078948;28;20582;-70
2023/05/17 14:44:37;;;;;;;2.45;1.73;;;;;;;18.57;47.22;96758.22;5078953;28;20204;-69
2023/05/17 14:47:04;;;;;;;2.65;1.27;;;;;;;19.03;49.80;96766.75;5078948;28;20699;-70
2023/05/17 14:49:31;;;;;;;6.25;1.17;;;;;;;19.37;50.46;96768.97;5077141;28;20226;-73
2023/05/17 14:51:59;;;;;;;2.70;1.20;;;;;;;20.08;53.73;96765.66;5078589;28;20200;-72
2023/05/17 14:54:28;;;;;;;2.58;1.20;;;;;;;19.72;50.40;96766.41;5078432;28;20263;-73
2023/05/17 14:56:55;;;;;;;3.95;1.30;;;;;;;18.18;54.11;96770.91;5078286;28;20228;-71
2023/05/17 14:59:21;;;;;;;3.95;1.02;;;;;;;18.41;48.29;96776.56;5078050;28;20258;-76
2023/05/17 15:01:48;;;;;;;4.20;1.42;;;;;;;18.03;52.20;96774.81;5076985;28;20215;-75
2023/05/17 15:04:14;;;;;;;2.17;1.02;;;;;;;18.48;52.59;96786.19;5077781;28;20207;-70
2023/05/17 15:06:41;;;;;;;4.82;1.02;;;;;;;17.89;50.49;96783.88;5078639;28;20239;-71
2023/05/17 15:09:11;;;;;;;1.17;1.02;;;;;;;18.02;52.37;96783.84;5076886;28;20212;-69
2023/05/17 15:11:38;;;;;;;1.88;0.88;;;;;;;17.48;51.67;96785.19;5078562;28;20210;-68
2023/05/17 15:14:05;;;;;;;1.38;0.90;;;;;;;17.29;51.35;96784.16;5079355;28;20223;-75
2023/05/17 15:16:32;;;;;;;1.30;1.02;;;;;;;17.21;50.56;96783.53;5078109;28;20224;-76
2023/05/17 15:18:59;;;;;;;1.38;0.60;;;;;;;17.76;50.87;96782.06;5078182;28;20824;-72
2023/05/17 15:21:26;;;;;;;4.93;1.20;;;;;;;17.58;48.64;96786.41;5078313;28;20204;-72
2023/05/17 15:23:53;;;;;;;1.10;0.95;;;;;;;18.35;48.83;96780.91;5077648;28;20204;-77
2023/05/17 15:26:21;;;;;;;0.90;0.60;;;;;;;17.93;47.73;96780.56;5078167;28;20227;-73
2023/05/17 15:28:48;;;;;;;8.02;1.65;;;;;;;18.17;49.36;96782.59;5077469;28;20227;-70
2023/05/17 15:31:15;;;;;;;5.03;0.82;;;;;;;18.61;47.27;96779.94;5074926;28;20227;-70
2023/05/17 15:33:42;;;;;;;4.40;0.63;;;;;;;18.09;50.52;96780.13;5075701;28;20231;-74
2023/05/17 15:36:09;;;;;;;1.75;1.17;;;;;;;18.57;49.27;96774.22;5076823;28;20227;-70
2023/05/17 15:38:35;;;;;;;0.77;0.77;;;;;;;18.52;50.01;96773.22;5076927;28;20200;-76
2023/05/17 15:41:04;;;;;;;1.83;0.55;;;;;;;18.79;50.01;96785.38;5077615;28;20741;-71
2023/05/17 15:43:33;;;;;;;2.10;1.00;;;;;;;17.70;49.02;96789.25;5077878;28;20200;-74
2023/05/17 15:45:59;;;;;;;2.40;1.05;;;;;;;18.03;48.83;96780.97;5077090;28;20208;-71
2023/05/17 15:48:27;;;;;;;0.98;0.60;;;;;;;17.92;49.89;96781.63;5074117;28;20196;-74
2023/05/17 15:50:54;;;;;;;1.92;1.20;;;;;;;18.04;50.81;96787.13;5076211;28;20716;-71
2023/05/17 15:53:21;;;;;;;3.00;0.70;;;;;;;18.18;47.72;96784.25;5077515;28;20292;-74
2023/05/17 15:55:49;;;;;;;1.83;0.98;;;;;;;18.34;49.20;96784.59;5077255;28;20664;-72
2023/05/17 15:58:16;;;;;;;1.17;1.02;;;;;;;17.64;48.71;96798.06;5076809;28;20207;-69
2023/05/17 16:00:44;;;;;;;1.20;0.63;;;;;;;17.89;48.49;96791.88;5078121;28;20289;-69
2023/05/17 16:03:11;;;;;;;0.68;0.65;;;;;;;17.98;49.41;96794.09;5077211;28;20925;-73
2023/05/17 16:05:38;;;;;;;1.98;0.73;;;;;;;18.23;48.33;96787.09;5077178;28;20204;-69
2023/05/17 16:08:05;;;;;;;3.05;0.88;;;;;;;18.66;49.08;96793.47;5076835;28;20223;-72
2023/05/17 16:10:32;;;;;;;2.65;0.35;;;;;;;19.12;46.57;96790.34;5076898;28;20216;-76
2023/05/17 16:12:59;;;;;;;1.02;0.60;;;;;;;19.45;45.74;96779.41;5076548;28;20294;-75
2023/05/17 16:15:25;;;;;;;2.15;1.02;;;;;;;20.27;45.29;96787.63;5077104;28;20317;-72
2023/05/17 16:17:53;;;;;;;1.27;0.75;;;;;;;19.39;44.79;96790.97;5076382;28;20228;-75
2023/05/17 16:20:21;;;;;;;4.00;0.70;;;;;;;18.82;45.96;96798.31;5077239;28;20200;-73
2023/05/17 16:22:49;;;;;;;2.97;0.98;;;;;;;19.18;44.23;96802.84;5076896;28;20946;-76
2023/05/17 16:25:16;;;;;;;1.48;0.63;;;;;;;18.83;45.38;96800.78;5077537;28;20211;-73
2023/05/17 16:27:42;;;;;;;2.42;1.00;;;;;;;18.46;45.13;96796.22;5076107;28;20224;-71
2023/05/17 16:30:10;;;;;;;0.55;0.50;;;;;;;18.73;46.32;96797.75;5075974;28;20230;-69
2023/05/17 16:32:36;;;;;;;1.60;0.88;;;;;;;18.77;47.77;96801.63;5076206;28;20204;-70
2023/05/17 16:35:05;;;;;;;0.90;0.77;;;;;;;18.36;46.04;96813.72;5075815;28;20204;-75
2023/05/17 16:37:31;;;;;;;1.48;1.15;;;;;;;18.02;47.90;96811.31;5073045;28;20215;-75
2023/05/17 16:39:58;;;;;;;1.58;0.60;;;;;;;18.13;47.58;96812.56;5075765;28;20222;-73
2023/05/17 16:42:25;;;;;;;1.17;0.60;;;;;;;18.57;45.98;96816.09;5074561;28;20204;-71
2023/05/17 16:44:51;;;;;;;1.13;0.70;;;;;;;17.83;47.10;96816.69;5075838;28;20199;-72
2023/05/17 16:47:22;;;;;;;3.03;0.80;;;;;;;17.33;49.07;96817.34;5075439;28;20230;-72
2023/05/17 16:49:49;;;;;;;1.27;0.95;;;;;;;17.20;49.43;96817.31;5075274;28;20996;-72
2023/05/17 16:52:17;;;;;;;2.53;1.10;;;;;;;17.18;48.75;96824.69;5076311;28;20231;-72
2023/05/17 16:54:43;;;;;;;1.60;0.57;;;;;;;17.25;49.71;96822.06;5076834;28;21145;-75
2023/05/17 16:57:10;;;;;;;0.73;0.63;;;;;;;17.24;49.22;96815.91;5076323;28;20223;-70
2023/05/17 16:59:37;;;;;;;0.70;0.60;;;;;;;17.08;48.86;96820.78;5075781;28;20572;-68
2023/05/17 17:02:04;;;;;;;3.15;0.90;;;;;;;17.38;48.66;96817.56;5076902;28;20206;-72
2023/05/17 17:04:31;;;;;;;0.65;0.47;;;;;;;17.42;47.57;96817.97;5076511;28;20195;-73
2023/05/17 17:06:58;;;;;;;1.40;0.47;;;;;;;16.84;49.46;96820.53;5075511;28;20310;-70
2023/05/17 17:09:26;;;;;;;1.23;0.73;;;;;;;16.57;51.52;96824.97;5075732;28;20223;-75
2023/05/17 17:11:52;;;;;;;1.85;0.80;;;;;;;16.78;50.50;96824.00;5076744;28;20239;-69
2023/05/17 17:14:19;;;;;;;3.03;1.77;;;;;;;16.94;49.58;96819.13;5075747;28;20204;-69
2023/05/17 17:16:45;;;;;;;4.22;1.00;;;;;;;17.20;51.42;96830.63;5075296;28;20212;-70
2023/05/17 17:19:12;;;;;;;1.38;1.00;;;;;;;18.33;48.69;96825.66;5075929;28;20845;-73
2023/05/17 17:21:41;;;;;;;1.38;0.80;;;;;;;18.16;50.97;96828.13;5075639;28;20192;-70
2023/05/17 17:24:08;;;;;;;1.05;0.70;;;;;;;17.89;48.79;96829.22;5075301;28;20253;-72
2023/05/17 17:26:36;;;;;;;2.42;0.95;;;;;;;18.12;48.28;96826.91;5076415;28;20215;-70
2023/05/17 17:29:03;;;;;;;1.85;0.88;;;;;;;17.66;48.26;96836.81;5076583;28;20204;-68
2023/05/17 17:31:30;;;;;;;1.23;0.70;;;;;;;17.23;51.57;96832.91;5075137;28;20281;-69
2023/05/17 17:33:56;;;;;;;1.38;0.38;;;;;;;16.98;51.31;96840.81;5075971;28;20199;-68
2023/05/17 17:36:24;;;;;;;1.23;1.10;;;;;;;16.88;52.70;96840.38;5073730;28;21021;-75
2023/05/17 17:38:51;;;;;;;1.13;0.63;;;;;;;16.40;52.89;96841.47;5072124;28;20200;-68
2023/05/17 17:41:18;;;;;;;1.02;0.77;;;;;;;16.10;51.35;96840.06;5072658;28;20203;-69
2023/05/17 17:43:48;;;;;;;1.17;0.93;;;;;;;16.54;54.92;96841.31;5073789;28;20204;-72
2023/05/17 17:46:14;;;;;;;2.42;0.77;;;;;;;17.08;53.52;96837.59;5072953;28;20227;-71
2023/05/17 17:48:41;;;;;;;0.90;0.50;;;;;;;17.24;52.75;96834.56;5073609;28;20199;-70
2023/05/17 17:51:08;;;;;;;2.65;1.25;;;;;;;17.25;51.13;96844.19;5074344;28;20219;-70
2023/05/17 17:53:35;;;;;;;1.58;0.85;;;;;;;16.39;51.89;96845.13;5074403;28;20271;-72
2023/05/17 17:56:01;;;;;;;1.13;0.68;;;;;;;16.45;53.16;96847.00;5075379;28;20782;-74
2023/05/17 17:58:29;;;;;;;1.23;0.80;;;;;;;15.90;53.15;96838.31;5077564;28;20268;-69
2023/05/17 18:00:57;;;;;;;2.00;0.63;;;;;;;16.12;53.96;96848.66;5078296;28;20202;-72
2023/05/17 18:03:23;;;;;;;0.80;0.60;;;;;;;15.98;55.40;96844.28;5077942;28;20204;-70
2023/05/17 18:05:50;;;;;;;1.80;1.05;;;;;;;15.23;54.86;96849.63;5078120;28;20286;-74
2023/05/17 18:08:16;;;;;;;0.77;0.50;;;;;;;15.49;55.48;96852.50;5078139;28;20210;-68
2023/05/17 18:10:43;;;;;;;0.68;0.57;;;;;;;15.66;55.92;96851.22;5077662;28;20228;-70
2023/05/17 18:13:09;;;;;;;2.60;0.50;;;;;;;15.28;56.14;96855.19;5077882;28;20317;-73
2023/05/17 18:15:36;;;;;;;0.93;0.60;;;;;;;15.39;59.14;96847.53;5077346;28;20204;-69
2023/05/17 18:18:04;;;;;;;1.60;0.95;;;;;;;15.09;58.84;96855.78;5077295;28;20220;-69
2023/05/17 18:20:30;;;;;;;2.10;0.77;;;;;;;14.54;60.44;96856.63;5077690;28;20557;-74
2023/05/17 18:22:57;;;;;;;8.63;1.10;;;;;;;14.51;60.40;96857.81;5077831;28;20206;-72
2023/05/17 18:25:24;;;;;;;2.92;1.25;;;;;;;14.28;60.99;96861.59;5077629;28;20671;-69
2023/05/17 18:27:50;;;;;;;0.75;0.55;;;;;;;14.27;61.10;96859.97;5076446;28;20226;-69
2023/05/17 18:30:17;;;;;;;8.00;1.40;;;;;;;13.91;62.29;96864.28;5076633;28;20437;-73
2023/05/17 18:32:44;;;;;;;3.65;1.00;;;;;;;13.42;62.52;96857.84;5077087;28;20748;-73
2023/05/17 18:35:12;;;;;;;1.73;1.05;;;;;;;13.25;63.46;96867.94;5077152;28;20226;-74
2023/05/17 18:37:38;;;;;;;1.40;1.00;;;;;;;12.90;66.29;96868.53;5077893;28;20227;-69
2023/05/17 18:40:06;;;;;;;1.95;0.95;;;;;;;12.72;67.65;96867.97;5077957;28;20210;-69
2023/05/17 18:42:33;;;;;;;1.77;0.50;;;;;;;12.45;68.11;96865.81;5078279;28;20192;-70
2023/05/17 18:44:59;;;;;;;0.98;0.75;;;;;;;12.73;68.98;96877.56;5077759;28;20238;-77
2023/05/17 18:47:26;;;;;;;1.27;0.93;;;;;;;12.78;67.91;96878.66;5077886;28;20223;-74
2023/05/17 18:49:53;;;;;;;1.90;1.15;;;;;;;12.76;68.75;96876.38;5078428;28;20201;-72
2023/05/17 18:52:21;;;;;;;1.77;0.90;;;;;;;12.99;66.58;96880.72;5078525;28;20219;-74
2023/05/17 18:54:47;;;;;;;1.98;1.00;;;;;;;13.03;69.39;96874.88;5078565;28;20196;-74
2023/05/17 18:57:14;;;;;;;4.32;1.35;;;;;;;12.96;68.57;96866.00;5078535;28;20224;-73
2023/05/17 18:59:40;;;;;;;0.85;0.60;;;;;;;12.89;66.25;96874.81;5078436;28;20203;-76
2023/05/17 19:02:07;;;;;;;1.95;1.05;;;;;;;12.75;67.35;96878.19;5078085;28;20199;-73
2023/05/17 19:04:35;;;;;;;1.83;0.75;;;;;;;12.41;67.92;96882.16;5077023;28;20311;-74
2023/05/17 19:07:02;;;;;;;1.15;0.60;;;;;;;12.24;69.37;96885.88;5074243;28;20924;-73
2023/05/17 19:09:30;;;;;;;1.83;1.05;;;;;;;12.10;69.10;96881.31;5076204;28;20780;-73
2023/05/17 19:11:57;;;;;;;1.85;0.88;;;;;;;11.91;70.31;96881.69;5076366;28;20224;-72
2023/05/17 19:14:23;;;;;;;2.33;0.88;;;;;;;11.93;72.63;96878.91;5077100;28;20211;-73
2023/05/17 19:16:50;;;;;;;1.17;0.85;;;;;;;11.77;71.51;96884.22;5076476;28;20216;-76
2023/05/17 19:19:17;;;;;;;2.75;1.13;;;;;;;11.64;72.25;96886.56;5076872;28;20204;-69
2023/05/17 19:21:43;;;;;;;3.05;1.10;;;;;;;11.54;73.44;96887.75;5077528;28;20203;-72
2023/05/17 19:24:10;;;;;;;1.10;1.00;;;;;;;11.63;72.89;96883.13;5077120;28;20203;-72
2023/05/17 19:26:38;;;;;;;1.60;0.90;;;;;;;11.65;74.74;96890.84;5076645;28;20228;-74
2023/05/17 19:29:04;;;;;;;1.88;1.20;;;;;;;11.45;75.66;96900.06;5076619;28;20211;-72
2023/05/17 19:31:30;;;;;;;2.10;1.02;;;;;;;11.38;74.97;96904.38;5076963;28;20231;-77
2023/05/17 19:33:58;;;;;;;1.13;0.70;;;;;;;11.18;75.85;96897.78;5076649;28;20211;-72
2023/05/17 19:36:25;;;;;;;1.13;0.70;;;;;;;11.34;76.21;96900.44;5075414;28;20223;-76
2023/05/17 19:38:51;;;;;;;0.80;0.80;;;;;;;11.36;77.69;96898.44;5075698;28;20200;-76
2023/05/17 19:41:18;;;;;;;1.80;1.13;;;;;;;11.20;78.09;96898.44;5076257;28;20202;-70
2023/05/17 19:43:46;;;;;;;1.53;0.53;;;;;;;11.34;78.27;96897.78;5075539;28;20200;-70
2023/05/17 19:46:12;;;;;;;0.67;0.67;;;;;;;11.11;78.67;96898.59;5076143;28;20216;-72
2023/05/17 19:48:39;;;;;;;1.43;0.90;;;;;;;11.11;78.41;96895.97;5076078;28;20200;-72
2023/05/17 19:51:06;;;;;;;3.83;0.90;;;;;;;10.90;77.86;96892.19;5075648;28;20292;-72
2023/05/17 19:53:33;;;;;;;0.77;0.70;;;;;;;10.97;78.20;96886.91;5075014;28;20663;-75
2023/05/17 19:56:04;;;;;;;4.80;1.70;;;;;;;10.99;80.08;96898.09;5075510;28;20227;-74
2023/05/17 19:58:31;;;;;;;3.47;1.80;;;;;;;10.77;79.72;96889.16;5075032;28;20207;-73
2023/05/17 20:00:58;;;;;;;2.80;1.07;;;;;;;10.94;81.30;96889.84;5076195;28;20200;-75
2023/05/17 20:03:25;;;;;;;1.60;1.50;;;;;;;10.96;80.51;96889.72;5073895;28;20207;-70
2023/05/17 20:05:53;;;;;;;1.60;1.20;;;;;;;10.95;81.69;96886.22;5075320;28;21481;-74
2023/05/17 20:08:20;;;;;;;1.90;1.03;;;;;;;10.87;81.92;96892.47;5075045;28;20282;-72
2023/05/17 20:10:47;;;;;;;1.27;0.90;;;;;;;10.60;83.41;96890.13;5075299;28;20704;-71
2023/05/17 20:13:13;;;;;;;1.10;0.87;;;;;;;10.41;85.48;96890.41;5076334;28;20227;-70
2023/05/17 20:15:40;;;;;;;2.33;1.33;;;;;;;10.25;87.21;96890.34;5075592;28;20195;-73
2023/05/17 20:18:08;;;;;;;4.00;1.13;;;;;;;10.38;87.75;96896.00;5074655;28;20321;-69
2023/05/17 20:20:35;;;;;;;2.17;0.87;;;;;;;10.41;87.84;96893.03;5074652;28;20204;-70
2023/05/17 20:23:01;;;;;;;1.43;1.07;;;;;;;10.34;87.83;96892.84;5075954;28;20210;-72
2023/05/17 20:25:28;;;;;;;1.47;1.20;;;;;;;10.31;88.59;96889.72;5074984;28;20211;-69
2023/05/17 20:27:55;;;;;;;0.57;0.43;;;;;;;10.39;88.19;96901.09;5074605;28;20270;-70
2023/05/17 20:30:21;;;;;;;2.50;1.30;;;;;;;10.24;88.80;96901.06;5075647;28;20210;-72
2023/05/17 20:32:48;;;;;;;0.70;0.63;;;;;;;9.91;90.70;96902.66;5075425;28;20242;-71
2023/05/17 20:35:15;;;;;;;4.13;1.10;;;;;;;9.81;91.73;96907.25;5074151;28;20214;-69
2023/05/17 20:37:42;;;;;;;1.87;1.43;;;;;;;9.82;92.22;96903.59;5074599;28;20216;-71
2023/05/17 20:40:09;;;;;;;3.63;1.47;;;;;;;9.98;91.54;96906.38;5075619;28;20204;-72
2023/05/17 20:42:39;;;;;;;3.37;1.83;;;;;;;9.97;90.93;96903.91;5075715;28;20204;-68
2023/05/17 20:45:07;;;;;;;4.43;2.40;;;;;;;10.05;90.68;96896.84;5075926;28;20210;-71
2023/05/17 20:47:35;;;;;;;3.03;1.67;;;;;;;9.83;90.86;96904.44;5075190;28;20224;-71
2023/05/17 20:50:02;;;;;;;4.83;2.37;;;;;;;9.81;91.69;96907.25;5076006;28;20196;-71
2023/05/17 20:52:30;;;;;;;5.33;2.83;;;;;;;9.84;91.84;96901.66;5074587;28;20242;-71
2023/05/17 20:54:57;;;;;;;5.13;3.30;;;;;;;9.64;92.36;96904.66;5075994;28;20203;-71
2023/05/17 20:57:23;;;;;;;2.57;1.70;;;;;;;9.23;94.76;96907.16;5074269;28;20216;-72
2023/05/17 20:59:51;;;;;;;6.17;2.13;;;;;;;9.11;95.87;96909.22;5075464;28;20196;-70
2023/05/17 21:02:17;;;;;;;3.00;1.73;;;;;;;9.16;95.79;96908.75;5076576;28;20689;-67
2023/05/17 21:04:44;;;;;;;3.53;1.83;;;;;;;9.29;94.79;96903.91;5076587;28;20204;-71
2023/05/17 21:07:11;;;;;;;1.10;0.97;;;;;;;9.30;95.08;96908.19;5074665;28;20230;-69
2023/05/17 21:09:39;;;;;;;2.40;1.10;;;;;;;9.25;95.86;96907.81;5075513;28;20211;-71
2023/05/17 21:12:06;;;;;;;10.43;1.67;;;;;;;9.29;95.27;96903.91;5076007;28;20219;-69
2023/05/17 21:14:32;;;;;;;4.70;1.63;;;;;;;9.23;95.29;96905.34;5076052;28;20200;-70
2023/05/17 21:17:00;;;;;;;4.57;2.00;;;;;;;9.26;94.79;96909.50;5075507;28;20219;-70
2023/05/17 21:19:27;;;;;;;3.80;1.40;;;;;;;8.88;97.39;96915.06;5076013;28;20393;-68
2023/05/17 21:21:53;;;;;;;4.07;1.23;;;;;;;8.99;96.97;96908.78;5075351;28;20203;-71
2023/05/17 21:24:20;;;;;;;2.83;1.33;;;;;;;9.00;96.62;96911.25;5075355;28;20204;-67
2023/05/17 21:26:47;;;;;;;2.13;1.40;;;;;;;9.03;95.77;96908.31;5075712;28;20241;-69
2023/05/17 21:29:14;;;;;;;1.53;1.10;;;;;;;8.96;94.86;96907.28;5075669;28;20215;-70
2023/05/17 21:31:40;;;;;;;1.90;1.63;;;;;;;8.94;94.48;96903.97;5077214;28;20263;-67
2023/05/17 21:34:07;;;;;;;2.57;1.13;;;;;;;8.95;94.14;96905.63;5078843;28;21223;-66
2023/05/17 21:36:33;;;;;;;1.50;1.00;;;;;;;8.85;94.79;96904.88;5079835;28;20222;-69
2023/05/17 21:39:00;;;;;;;0.93;0.93;;;;;;;8.79;95.41;96900.19;5078773;28;20216;-69
2023/05/17 21:41:26;;;;;;;1.53;1.10;;;;;;;8.69;94.82;96899.47;5079687;28;20234;-68
2023/05/17 21:43:54;;;;;;;2.43;1.33;;;;;;;8.47;97.91;96903.50;5079849;28;20210;-69
2023/05/17 21:46:21;;;;;;;1.83;1.43;;;;;;;8.47;96.87;96898.25;5079323;28;20223;-70
2023/05/17 21:48:47;;;;;;;1.40;1.00;;;;;;;8.45;96.22;96895.75;5078877;28;20211;-70
2023/05/17 21:51:14;;;;;;;1.63;1.37;;;;;;;8.44;96.66;96904.63;5079997;28;20230;-69
2023/05/17 21:53:40;;;;;;;1.47;1.27;;;;;;;8.36;95.88;96895.81;5078668;28;20220;-69
2023/05/17 21:56:07;;;;;;;1.67;1.27;;;;;;;8.37;95.34;96903.53;5079046;28;20196;-70
2023/05/17 21:58:33;;;;;;;1.50;0.97;;;;;;;8.36;94.83;96895.81;5078057;28;20832;-70
2023/05/17 22:01:01;;;;;;;2.37;1.33;;;;;;;8.43;94.89;96891.63;5079701;28;21077;-66
2023/05/17 22:03:28;;;;;;;0.63;0.63;;;;;;;8.25;95.27;96891.59;5079680;28;20200;-68
2023/05/17 22:05:54;;;;;;;0.70;0.70;;;;;;;8.18;96.01;96890.50;5079680;28;20200;-70
2023/05/17 22:08:20;;;;;;;0.93;0.87;;;;;;;8.10;96.71;96894.84;5077364;28;20588;-68
2023/05/17 22:10:48;;;;;;;1.90;1.00;;;;;;;7.84;98.26;96893.00;5077611;28;20211;-68
2023/05/17 22:13:16;;;;;;;1.63;1.53;;;;;;;7.97;97.45;96889.91;5077670;28;20234;-68
2023/05/17 22:15:44;;;;;;;1.73;1.00;;;;;;;8.00;95.62;96887.00;5077890;28;20291;-70
2023/05/17 22:18:12;;;;;;;1.00;0.90;;;;;;;8.05;95.74;96889.19;5077005;28;20311;-68
2023/05/17 22:20:39;;;;;;;3.17;1.37;;;;;;;8.00;95.17;96891.41;5078131;28;20242;-68
2023/05/17 22:23:05;;;;;;;1.20;1.10;;;;;;;7.93;96.69;96890.38;5079210;28;20219;-71
2023/05/17 22:25:32;;;;;;;1.13;1.00;;;;;;;7.94;95.96;96894.63;5079274;28;20203;-66
2023/05/17 22:27:58;;;;;;;2.20;1.07;;;;;;;7.90;95.25;96893.25;5078879;28;20251;-69
2023/05/17 22:30:24;;;;;;;1.37;1.27;;;;;;;7.79;95.84;96890.84;5079746;28;20204;-68
2023/05/17 22:32:53;;;;;;;2.10;1.13;;;;;;;7.73;95.43;96886.16;5079125;28;21083;-70
2023/05/17 22:35:21;;;;;;;1.70;1.60;;;;;;;7.80;95.98;96884.59;5078916;28;20200;-66
2023/05/17 22:37:48;;;;;;;3.03;2.27;;;;;;;7.57;96.78;96885.91;5078832;28;20230;-70
2023/05/17 22:40:15;;;;;;;3.13;2.10;;;;;;;7.39;98.02;96882.38;5079177;28;20275;-70
2023/05/17 22:42:41;;;;;;;1.83;1.50;;;;;;;7.38;97.96;96882.53;5078162;28;20754;-71
2023/05/17 22:45:11;;;;;;;5.57;2.60;;;;;;;7.26;98.88;96886.31;5079040;28;20211;-71
2023/05/17 22:47:37;;;;;;;2.10;1.93;;;;;;;7.37;98.19;96888.78;5078715;28;20700;-71
2023/05/17 22:50:05;;;;;;;3.57;2.43;;;;;;;7.42;99.27;96884.75;5078924;28;20200;-70
2023/05/17 22:52:32;;;;;;;4.60;2.57;;;;;;;7.46;99.19;96882.69;5078830;28;20192;-66
2023/05/17 22:54:59;;;;;;;13.57;3.37;;;;;;;7.24;99.71;96887.41;5078878;28;20204;-66
2023/05/17 22:57:25;;;;;;;3.43;2.53;;;;;;;7.33;100.00;96887.38;5077990;28;20235;-68
2023/05/17 22:59:52;;;;;;;2.63;2.43;;;;;;;7.32;100.00;96886.56;5078378;28;20212;-67
2023/05/17 23:02:18;;;;;;;3.03;1.73;;;;;;;7.03;100.00;96879.72;5079107;28;20231;-70
2023/05/17 23:04:45;;;;;;;2.60;1.43;;;;;;;7.18;100.00;96882.72;5078544;28;20232;-67
2023/05/17 23:07:11;;;;;;;3.80;2.27;;;;;;;6.92;100.00;96881.66;5078150;28;20255;-66
2023/05/17 23:09:39;;;;;;;4.63;2.00;;;;;;;7.08;100.00;96882.75;5078144;28;20216;-66
2023/05/17 23:12:07;;;;;;;2.73;1.77;;;;;;;7.16;100.00;96879.44;5078696;28;20204;-68
2023/05/17 23:14:35;;;;;;;6.73;1.73;;;;;;;7.28;99.71;96881.75;5078494;28;20196;-66
2023/05/17 23:17:02;;;;;;;2.43;0.90;;;;;;;7.31;98.17;96877.03;5078431;28;20223;-67
2023/05/17 23:19:28;;;;;;;4.40;2.17;;;;;;;7.19;96.98;96877.34;5077569;28;20269;-70
2023/05/17 23:21:55;;;;;;;4.27;1.80;;;;;;;7.24;96.55;96872.50;5078363;28;20204;-70
2023/05/17 23:24:24;;;;;;;2.93;1.77;;;;;;;7.13;98.18;96870.06;5078165;28;20776;-70
2023/05/17 23:26:52;;;;;;;1.37;1.20;;;;;;;7.23;98.16;96867.41;5078236;28;20706;-66
2023/05/17 23:29:18;;;;;;;7.50;1.87;;;;;;;7.08;97.44;96866.22;5077160;28;20208;-71
2023/05/17 23:31:46;;;;;;;4.20;1.77;;;;;;;7.00;98.21;96866.06;5077833;28;20231;-69
2023/05/17 23:34:13;;;;;;;2.53;1.57;;;;;;;6.99;98.92;96864.44;5078880;28;20199;-70
2023/05/17 23:36:40;;;;;;;1.70;1.47;;;;;;;6.94;100.00;96858.78;5077804;28;20231;-68
2023/05/17 23:39:07;;;;;;;1.90;1.23;;;;;;;6.41;100.00;96868.00;5076958;28;20230;-70
2023/05/17 23:41:36;;;;;;;2.30;1.47;;;;;;;6.57;100.00;96860.44;5078272;28;20253;-70
2023/05/17 23:44:04;;;;;;;1.73;1.63;;;;;;;6.65;100.00;96859.78;5078976;28;20316;-68
2023/05/17 23:46:30;;;;;;;1.83;1.23;;;;;;;6.64;100.00;96856.31;5077423;28;20247;-70
2023/05/17 23:48:57;;;;;;;4.07;2.07;;;;;;;6.26;100.00;96860.69;5076948;28;20200;-70
2023/05/17 23:51:23;;;;;;;1.60;1.47;;;;;;;6.36;100.00;96854.50;5078167;28;20211;-69
2023/05/17 23:53:50;;;;;;;2.47;2.27;;;;;;;6.50;100.00;96853.28;5077150;28;20192;-69
2023/05/17 23:56:16;;;;;;;1.03;0.97;;;;;;;6.55;100.00;96858.94;5077304;28;20250;-70
2023/05/17 23:58:43;;;;;;;3.40;1.37;;;;;;;6.29;100.00;96852.59;5077537;28;20253;-70
